Time;durP1;ratioP1;P1;durP2;ratioP2;P2;SDS_P1;SDS_P2;PMS_P1;PMS_P2;Temp;Humidity;BMP_temperature;BMP_pressure;BME280_temperature;BME280_humidity;BME280_pressure;Samples;Min_cycle;Max_cycle;Signal;HPM_P1;HPM_P2
2022/12/15 00:40:05;;;;;;;499.60;463.80;;;-8.00;99.90;;;;;;5084171;28;20199;-86
2022/12/15 00:42:32;;;;;;;498.83;463.52;;;-8.00;99.90;;;;;;5083528;28;20240;-87
2022/12/15 00:44:59;;;;;;;526.20;487.60;;;-7.70;99.90;;;;;;5083077;28;20199;-86
2022/12/15 00:47:25;;;;;;;524.50;484.83;;;-7.50;99.90;;;;;;5083218;28;20224;-86
2022/12/15 01:20:13;;;;;;;415.38;395.35;;;-7.90;99.90;;;;;;5083511;28;20222;-87
2022/12/15 01:22:41;;;;;;;411.38;390.95;;;-7.90;99.90;;;;;;5082720;28;20220;-86
2022/12/15 01:25:09;;;;;;;407.80;388.35;;;-7.70;99.90;;;;;;5083560;28;20576;-86
2022/12/15 01:27:38;;;;;;;399.63;380.20;;;-7.90;99.90;;;;;;5082205;28;20220;-86
2022/12/15 01:30:07;;;;;;;425.85;404.75;;;-7.70;99.90;;;;;;5082910;28;20553;-87
2022/12/15 01:32:34;;;;;;;418.30;398.23;;;-7.70;99.90;;;;;;5082189;28;20214;-86
2022/12/15 01:35:02;;;;;;;414.20;393.45;;;-7.70;99.90;;;;;;5083270;28;20220;-86
2022/12/15 01:37:29;;;;;;;393.27;374.88;;;-7.70;99.90;;;;;;5082955;28;20192;-87
2022/12/15 01:42:42;;;;;;;404.73;384.05;;;-7.80;99.90;;;;;;5086003;28;20244;-86
2022/12/15 01:45:51;;;;;;;395.77;376.33;;;-7.70;99.90;;;;;;5086399;28;20201;-87
2022/12/15 01:48:25;;;;;;;387.33;368.77;;;-7.80;99.90;;;;;;5071720;28;20192;-87
2022/12/15 01:51:03;;;;;;;395.70;377.83;;;-7.80;99.90;;;;;;5086041;28;20193;-86
2022/12/15 01:53:34;;;;;;;401.38;382.85;;;-7.70;99.90;;;;;;5086736;28;20198;-87
2022/12/15 01:56:03;;;;;;;406.73;387.35;;;-7.50;99.90;;;;;;5087070;28;20220;-87
2022/12/15 01:58:31;;;;;;;415.50;394.90;;;-7.60;99.90;;;;;;5086396;28;20672;-86
2022/12/15 02:01:00;;;;;;;427.42;405.98;;;-7.60;99.90;;;;;;5085784;28;20304;-86
2022/12/15 02:03:27;;;;;;;416.48;394.63;;;-7.60;99.90;;;;;;5087720;28;20204;-87
2022/12/15 02:05:54;;;;;;;415.05;393.75;;;-7.60;99.90;;;;;;5086953;28;20562;-86
2022/12/15 02:08:22;;;;;;;409.67;388.67;;;-7.60;99.90;;;;;;5085823;28;20184;-86
2022/12/15 02:11:07;;;;;;;420.33;398.63;;;-7.70;99.90;;;;;;5087076;28;20226;-86
2022/12/15 02:13:43;;;;;;;403.52;383.58;;;-7.70;99.90;;;;;;5086219;28;20653;-87
2022/12/15 02:16:17;;;;;;;391.00;371.52;;;-7.60;99.90;;;;;;5085840;28;20212;-87
2022/12/15 02:18:55;;;;;;;388.05;369.30;;;-7.60;99.90;;;;;;5085622;28;20188;-86
2022/12/15 02:21:29;;;;;;;391.08;371.77;;;-7.70;99.90;;;;;;5085997;28;20279;-86
2022/12/15 02:24:31;;;;;;;400.77;381.17;;;-7.70;99.90;;;;;;5085545;28;20574;-86
2022/12/15 02:27:14;;;;;;;398.35;379.30;;;-7.70;99.90;;;;;;5086851;28;20199;-86
2022/12/15 02:30:12;;;;;;;384.02;364.75;;;-7.70;99.90;;;;;;5086356;28;20196;-86
2022/12/15 02:32:46;;;;;;;393.92;375.65;;;-7.70;99.90;;;;;;5086044;28;20224;-86
2022/12/15 02:35:20;;;;;;;388.27;370.55;;;-7.80;99.90;;;;;;5085834;28;20743;-86
2022/12/15 02:37:47;;;;;;;373.15;355.17;;;-7.80;99.90;;;;;;5088408;28;20269;-87
2022/12/15 02:40:14;;;;;;;387.27;368.00;;;-7.90;99.90;;;;;;5087475;28;20291;-86
2022/12/15 02:42:45;;;;;;;369.73;352.60;;;-8.00;99.90;;;;;;5088773;28;20220;-87
2022/12/15 02:45:14;;;;;;;385.15;366.95;;;-7.90;99.90;;;;;;5088461;28;20185;-86
2022/12/15 02:47:46;;;;;;;408.00;387.33;;;-8.00;99.90;;;;;;5087351;28;20582;-86
2022/12/15 02:50:51;;;;;;;397.75;377.90;;;-7.80;99.90;;;;;;5087075;28;20189;-87
2022/12/15 02:53:33;;;;;;;387.38;370.00;;;-7.70;99.90;;;;;;5043223;28;20196;-86
2022/12/15 02:56:06;;;;;;;411.17;390.08;;;-7.80;99.90;;;;;;5080750;28;20216;-86
2022/12/15 02:58:39;;;;;;;438.52;416.60;;;-7.70;99.90;;;;;;5085238;28;20222;-87
2022/12/15 03:01:12;;;;;;;414.52;393.80;;;-7.60;99.90;;;;;;5083638;28;20197;-86
2022/12/15 03:03:41;;;;;;;432.13;409.70;;;-7.60;99.90;;;;;;5084246;28;20255;-86
2022/12/15 03:06:09;;;;;;;428.55;405.63;;;-7.50;99.90;;;;;;5084632;28;20192;-86
2022/12/15 03:08:36;;;;;;;421.95;400.70;;;-7.40;99.90;;;;;;5084938;28;20890;-87
2022/12/15 03:11:03;;;;;;;419.98;397.83;;;-7.50;99.90;;;;;;5084262;28;20199;-86
2022/12/15 03:13:29;;;;;;;400.10;379.73;;;-7.50;99.90;;;;;;5083878;28;20613;-87
2022/12/15 03:15:57;;;;;;;415.45;394.70;;;-7.50;99.90;;;;;;5084900;28;20283;-87
2022/12/15 03:18:24;;;;;;;422.92;400.65;;;-7.50;99.90;;;;;;5084429;28;20271;-86
2022/12/15 03:20:52;;;;;;;436.33;413.90;;;-7.40;99.90;;;;;;5084533;28;20192;-87
2022/12/15 03:23:21;;;;;;;429.88;407.02;;;-7.40;99.90;;;;;;5083842;28;20196;-86
2022/12/15 03:25:49;;;;;;;411.88;392.00;;;-7.40;99.90;;;;;;5083410;28;20192;-87
2022/12/15 03:28:16;;;;;;;403.45;384.08;;;-7.50;99.90;;;;;;5083400;28;20227;-85
2022/12/15 03:30:42;;;;;;;404.83;383.67;;;-7.50;99.90;;;;;;5084259;28;20203;-85
2022/12/15 03:33:09;;;;;;;401.27;381.30;;;-7.50;99.90;;;;;;5083768;28;20224;-85
2022/12/15 03:35:36;;;;;;;396.33;377.67;;;-7.50;99.90;;;;;;5084419;28;20227;-87
2022/12/15 03:38:04;;;;;;;382.08;364.35;;;-7.50;99.90;;;;;;5085020;28;20207;-87
2022/12/15 03:40:31;;;;;;;380.92;362.85;;;-7.70;99.90;;;;;;5083329;28;20211;-87
2022/12/15 03:42:59;;;;;;;389.10;369.98;;;-7.70;99.90;;;;;;5082903;28;20239;-86
2022/12/15 03:45:28;;;;;;;379.75;362.17;;;-7.60;99.90;;;;;;5083801;28;20196;-87
2022/12/15 03:47:56;;;;;;;372.95;355.20;;;-7.60;99.90;;;;;;5083205;28;20192;-87
2022/12/15 03:50:25;;;;;;;367.77;349.27;;;-7.70;99.90;;;;;;5082330;28;20193;-86
2022/12/15 03:52:53;;;;;;;368.52;351.20;;;-7.80;99.90;;;;;;5083198;28;20219;-86
2022/12/15 03:55:22;;;;;;;388.58;368.77;;;-7.80;99.90;;;;;;5082937;28;20247;-86
2022/12/15 03:57:50;;;;;;;372.98;355.85;;;-7.90;99.90;;;;;;5083257;28;20231;-86
2022/12/15 04:00:18;;;;;;;368.02;351.80;;;-7.80;99.90;;;;;;5083269;28;20200;-86
2022/12/15 04:02:45;;;;;;;357.80;341.55;;;-7.70;99.90;;;;;;5081719;28;20604;-86
2022/12/15 04:05:15;;;;;;;368.60;351.13;;;-7.80;99.90;;;;;;5080810;28;20199;-86
2022/12/15 04:07:42;;;;;;;376.88;359.38;;;-7.90;99.90;;;;;;5080396;28;20192;-86
2022/12/15 04:10:10;;;;;;;377.80;359.88;;;-7.70;99.90;;;;;;5080875;28;20672;-85
2022/12/15 04:12:39;;;;;;;394.55;374.27;;;-7.70;99.90;;;;;;5079744;28;20216;-86
2022/12/15 04:15:07;;;;;;;376.92;359.20;;;-7.70;99.90;;;;;;5080086;28;20192;-86
2022/12/15 04:17:34;;;;;;;363.90;347.88;;;-7.80;99.90;;;;;;5072621;28;20191;-86
2022/12/15 04:20:10;;;;;;;363.85;345.85;;;-7.90;99.90;;;;;;5081161;28;20260;-86
2022/12/15 04:22:39;;;;;;;373.10;354.98;;;-8.00;99.90;;;;;;5080745;28;20275;-87
2022/12/15 05:33:56;;;;;;;363.63;346.25;;;-7.70;99.90;;;;;;5083357;28;20199;-86
2022/12/15 05:36:23;;;;;;;349.90;333.60;;;-7.70;99.90;;;;;;5083600;28;20699;-86
2022/12/15 05:38:50;;;;;;;338.95;322.95;;;-7.80;99.90;;;;;;5084325;28;20199;-86
2022/12/15 05:41:18;;;;;;;338.80;323.10;;;-7.80;99.90;;;;;;5083937;28;20216;-86
2022/12/15 05:43:45;;;;;;;345.38;329.30;;;-7.90;99.90;;;;;;5082784;28;20192;-86
2022/12/15 05:46:13;;;;;;;347.77;331.75;;;-7.70;99.90;;;;;;5082463;28;20199;-86
2022/12/15 05:48:42;;;;;;;368.95;350.67;;;-7.80;99.90;;;;;;5084395;28;20196;-82
2022/12/15 05:51:11;;;;;;;353.33;337.17;;;-7.70;99.90;;;;;;5084353;28;20201;-86
2022/12/15 05:53:39;;;;;;;369.98;353.35;;;-7.70;99.90;;;;;;5086376;28;20195;-86
2022/12/15 05:56:08;;;;;;;341.00;323.38;;;-7.80;99.90;;;;;;5085385;28;20208;-86
2022/12/15 05:58:38;;;;;;;332.63;317.20;;;-7.80;99.90;;;;;;5086404;28;20250;-86
2022/12/15 06:01:14;;;;;;;350.40;334.48;;;-7.90;99.90;;;;;;5071282;28;20200;-86
2022/12/15 06:03:42;;;;;;;351.25;334.88;;;-7.70;99.90;;;;;;5086003;28;20215;-86
2022/12/15 06:06:11;;;;;;;337.05;321.08;;;-7.80;99.90;;;;;;5085739;28;20184;-87
2022/12/15 06:08:40;;;;;;;359.35;342.73;;;-7.80;99.90;;;;;;5084706;28;20192;-87
2022/12/15 06:11:08;;;;;;;346.65;329.40;;;-7.80;99.90;;;;;;5074339;28;20203;-85
2022/12/15 06:13:36;;;;;;;328.55;313.35;;;-7.90;99.90;;;;;;5084906;28;20197;-87
2022/12/15 06:16:07;;;;;;;356.17;338.20;;;-7.90;99.90;;;;;;5084403;28;20215;-86
2022/12/15 06:18:46;;;;;;;323.80;308.60;;;-7.90;99.90;;;;;;5083990;28;20200;-85
2022/12/15 06:21:17;;;;;;;312.90;297.73;;;-7.90;99.90;;;;;;5083986;28;20216;-86
2022/12/15 06:23:45;;;;;;;299.50;285.42;;;-8.00;99.90;;;;;;5069585;28;20215;-86
2022/12/15 06:26:14;;;;;;;294.33;280.55;;;-8.10;99.90;;;;;;5085288;28;20192;-87
2022/12/15 06:28:42;;;;;;;312.90;296.83;;;-8.20;99.90;;;;;;5084351;28;20672;-87
2022/12/15 06:31:16;;;;;;;308.85;294.90;;;-8.10;99.90;;;;;;5084772;28;20212;-84
2022/12/15 06:33:43;;;;;;;320.20;305.67;;;-8.00;99.90;;;;;;5083634;28;20199;-86
2022/12/15 06:36:12;;;;;;;313.58;300.08;;;-8.00;99.90;;;;;;5085203;28;20208;-86
2022/12/15 06:38:42;;;;;;;308.05;293.98;;;-8.10;99.90;;;;;;5087524;28;20192;-86
2022/12/15 06:41:10;;;;;;;299.20;285.80;;;-8.10;99.90;;;;;;5086988;28;20189;-86
2022/12/15 06:43:37;;;;;;;302.63;289.73;;;-8.20;99.90;;;;;;5082555;28;20224;-86
2022/12/15 06:46:04;;;;;;;307.63;295.02;;;-8.20;99.90;;;;;;5082362;28;20219;-85
2022/12/15 06:48:32;;;;;;;303.38;290.85;;;-8.20;99.90;;;;;;5081645;28;20196;-85
2022/12/15 06:51:03;;;;;;;299.40;284.70;;;-8.30;99.90;;;;;;5081439;28;20200;-85
2022/12/15 06:53:30;;;;;;;280.23;266.02;;;-8.20;99.90;;;;;;5080431;28;20192;-86
2022/12/15 06:56:01;;;;;;;274.67;263.15;;;-8.30;99.90;;;;;;5081003;28;20220;-86
2022/12/15 06:58:28;;;;;;;285.50;272.38;;;-8.40;99.90;;;;;;5078837;28;20200;-85
2022/12/15 07:00:56;;;;;;;304.27;291.75;;;-8.40;99.90;;;;;;5079636;28;20207;-85
2022/12/15 07:03:23;;;;;;;315.50;301.17;;;-8.20;99.90;;;;;;5080704;28;20184;-86
2022/12/15 07:06:02;;;;;;;317.30;303.70;;;-8.00;99.90;;;;;;5080148;28;20226;-86
2022/12/15 07:08:29;;;;;;;318.88;305.10;;;-7.80;99.90;;;;;;5080490;28;20253;-86
2022/12/15 07:10:56;;;;;;;330.25;315.15;;;-7.80;99.90;;;;;;5080053;28;20192;-86
2022/12/15 07:13:24;;;;;;;339.63;324.70;;;-7.70;99.90;;;;;;5080524;28;20194;-86
2022/12/15 07:15:51;;;;;;;335.30;319.13;;;-7.80;99.90;;;;;;5080137;28;20213;-85
2022/12/15 07:18:18;;;;;;;354.42;339.00;;;-7.80;99.90;;;;;;5080465;28;20200;-85
2022/12/15 07:20:46;;;;;;;333.63;318.77;;;-7.90;99.90;;;;;;5079774;28;20188;-86
2022/12/15 07:23:13;;;;;;;345.25;329.25;;;-7.90;99.90;;;;;;5079252;28;20697;-86
2022/12/15 07:25:40;;;;;;;334.67;320.17;;;-7.80;99.90;;;;;;5079539;28;20239;-86
2022/12/15 07:28:08;;;;;;;335.90;320.55;;;-7.70;99.90;;;;;;5079016;28;20684;-86
2022/12/15 07:30:37;;;;;;;343.00;327.90;;;-7.70;99.90;;;;;;5078441;28;20612;-85
2022/12/15 07:33:04;;;;;;;339.52;324.70;;;-7.60;99.90;;;;;;5080255;28;20601;-85
2022/12/15 07:35:31;;;;;;;341.73;326.30;;;-7.60;99.90;;;;;;5080258;28;20212;-84
2022/12/15 07:37:59;;;;;;;343.17;327.75;;;-7.60;99.90;;;;;;5079633;28;20207;-84
2022/12/15 07:40:28;;;;;;;340.23;324.05;;;-7.70;99.90;;;;;;5079358;28;20196;-85
2022/12/15 07:42:55;;;;;;;345.75;330.50;;;-7.70;99.90;;;;;;5079842;28;20219;-85
2022/12/15 07:45:21;;;;;;;352.92;336.52;;;-7.70;99.90;;;;;;5080980;28;20196;-85
2022/12/15 07:47:52;;;;;;;339.65;323.17;;;-7.60;99.90;;;;;;5080760;28;20192;-85
2022/12/15 07:50:20;;;;;;;336.27;321.42;;;-7.70;99.90;;;;;;5080522;28;20287;-84
2022/12/15 07:52:47;;;;;;;353.45;336.92;;;-7.60;99.90;;;;;;5080644;28;20222;-85
2022/12/15 07:55:15;;;;;;;363.25;346.15;;;-7.50;99.90;;;;;;5080703;28;20828;-85
2022/12/15 07:57:42;;;;;;;370.40;352.50;;;-7.50;99.90;;;;;;5080141;28;20241;-85
2022/12/15 08:00:10;;;;;;;386.05;367.58;;;-7.40;99.90;;;;;;5080676;28;20228;-86
2022/12/15 08:02:37;;;;;;;418.30;398.25;;;-7.40;99.90;;;;;;5080579;28;20216;-85
2022/12/15 08:05:06;;;;;;;408.30;388.83;;;-7.20;99.90;;;;;;5080914;28;20575;-85
2022/12/15 08:07:32;;;;;;;417.40;396.67;;;-7.00;99.90;;;;;;5079264;28;20250;-85
2022/12/15 08:09:59;;;;;;;448.42;424.33;;;-6.80;99.90;;;;;;5079490;28;20210;-85
2022/12/15 08:12:27;;;;;;;451.63;426.67;;;-6.50;99.90;;;;;;5079579;28;20306;-85
2022/12/15 08:14:54;;;;;;;442.10;420.08;;;-6.20;99.90;;;;;;5079962;28;20196;-83
2022/12/15 08:17:21;;;;;;;479.52;448.08;;;-5.80;99.90;;;;;;5080648;28;20220;-85
2022/12/15 08:19:47;;;;;;;471.55;445.60;;;-5.60;99.90;;;;;;5080995;28;20218;-84
2022/12/15 08:22:16;;;;;;;481.67;453.65;;;-5.40;99.90;;;;;;5080686;28;20212;-85
2022/12/15 08:24:42;;;;;;;490.60;460.98;;;-5.20;99.90;;;;;;5080416;28;20202;-84
2022/12/15 08:27:12;;;;;;;511.75;478.15;;;-5.00;99.90;;;;;;5080157;28;20196;-85
2022/12/15 08:29:40;;;;;;;488.95;460.23;;;-4.90;99.90;;;;;;5081174;28;20195;-85
2022/12/15 08:32:07;;;;;;;501.08;470.35;;;-4.70;99.90;;;;;;5079539;28;20221;-85
2022/12/15 08:34:34;;;;;;;482.95;452.70;;;-4.70;99.90;;;;;;5080338;28;20439;-84
2022/12/15 08:37:01;;;;;;;495.70;466.60;;;-4.60;99.90;;;;;;5080595;28;20307;-84
2022/12/15 08:39:29;;;;;;;486.70;459.10;;;-4.40;99.90;;;;;;5080423;28;20201;-84
2022/12/15 08:42:15;;;;;;;459.77;437.67;;;-4.30;99.90;;;;;;5080381;28;20219;-84
2022/12/15 08:44:43;;;;;;;515.05;481.98;;;-4.30;99.90;;;;;;5080605;28;20196;-85
2022/12/15 08:47:10;;;;;;;446.67;426.75;;;-4.30;99.90;;;;;;5079182;28;20192;-85
2022/12/15 08:52:23;;;;;;;423.58;403.77;;;-4.20;99.90;;;;;;5079272;28;20216;-84
2022/12/15 08:54:51;;;;;;;483.48;456.13;;;-4.20;99.90;;;;;;5080607;28;20200;-84
2022/12/15 08:57:26;;;;;;;508.38;478.13;;;-4.10;99.90;;;;;;5079773;28;20216;-85
2022/12/15 09:00:00;;;;;;;478.60;452.27;;;-4.00;99.90;;;;;;5080818;28;20223;-85
2022/12/15 09:02:26;;;;;;;454.55;431.55;;;-4.00;99.90;;;;;;5080866;28;20322;-85
2022/12/15 09:04:53;;;;;;;483.70;456.35;;;-4.00;99.90;;;;;;5080402;28;20284;-84
2022/12/15 09:07:20;;;;;;;460.05;436.63;;;-3.90;99.90;;;;;;5080029;28;20283;-85
2022/12/15 09:09:49;;;;;;;492.98;465.13;;;-3.80;99.90;;;;;;5080629;28;20203;-85
2022/12/15 09:12:18;;;;;;;436.45;413.10;;;-3.70;99.90;;;;;;5080485;28;20219;-84
2022/12/15 09:14:44;;;;;;;497.45;468.27;;;-3.90;99.90;;;;;;5082028;28;20196;-85
2022/12/15 09:17:11;;;;;;;465.25;441.20;;;-3.70;99.90;;;;;;5082821;28;20216;-85
2022/12/15 09:19:40;;;;;;;421.48;401.08;;;-3.80;99.90;;;;;;5083283;28;20201;-85
2022/12/15 09:22:07;;;;;;;399.75;381.50;;;-3.80;99.90;;;;;;5083470;28;20227;-85
2022/12/15 09:24:37;;;;;;;433.83;411.05;;;-3.70;99.90;;;;;;5083155;28;20196;-84
2022/12/15 09:27:04;;;;;;;469.30;445.02;;;-3.60;99.90;;;;;;5082894;28;20189;-85
2022/12/15 09:29:32;;;;;;;447.48;425.63;;;-3.60;99.90;;;;;;5083302;28;20430;-85
2022/12/15 09:31:59;;;;;;;524.78;493.80;;;-3.50;99.90;;;;;;5082522;28;20297;-85
2022/12/15 09:34:26;;;;;;;502.63;474.73;;;-3.40;99.90;;;;;;5085421;28;20231;-85
2022/12/15 09:36:52;;;;;;;487.38;461.42;;;-3.40;99.90;;;;;;5088511;28;20227;-84
2022/12/15 09:39:20;;;;;;;508.92;480.60;;;-3.40;99.90;;;;;;5084952;28;20203;-84
2022/12/15 09:41:53;;;;;;;518.70;490.98;;;-3.40;99.90;;;;;;5090711;28;20242;-84
2022/12/15 09:44:22;;;;;;;555.60;521.10;;;-3.30;99.90;;;;;;5091563;28;20191;-84
2022/12/15 09:47:04;;;;;;;551.90;517.10;;;-3.30;99.90;;;;;;5090146;28;20189;-84
2022/12/15 09:49:43;;;;;;;489.90;464.48;;;-3.20;99.90;;;;;;5088062;28;20196;-84
2022/12/15 09:52:12;;;;;;;416.00;397.50;;;-3.30;99.90;;;;;;5082234;28;20230;-85
2022/12/15 09:54:41;;;;;;;400.27;382.15;;;-3.40;99.90;;;;;;5082767;28;20210;-85
2022/12/15 09:57:14;;;;;;;429.95;408.85;;;-3.30;99.90;;;;;;5083179;28;20274;-85
2022/12/15 09:59:50;;;;;;;468.20;444.30;;;-3.30;99.90;;;;;;5085132;28;20482;-85
2022/12/15 10:02:48;;;;;;;460.27;435.42;;;-3.00;99.90;;;;;;5085885;28;20672;-85
2022/12/15 10:05:32;;;;;;;453.13;430.10;;;-3.10;99.90;;;;;;5085522;28;20200;-85
2022/12/15 10:08:00;;;;;;;534.25;504.20;;;-3.00;99.90;;;;;;5085838;28;20730;-84
2022/12/15 10:10:34;;;;;;;501.88;472.80;;;-2.80;99.90;;;;;;5085554;28;20196;-84
2022/12/15 10:13:06;;;;;;;492.45;467.05;;;-2.80;99.90;;;;;;5086004;28;20224;-85
2022/12/15 10:15:41;;;;;;;562.75;527.95;;;-3.00;99.90;;;;;;5085961;28;20200;-85
2022/12/15 10:18:19;;;;;;;538.38;508.70;;;-2.80;99.90;;;;;;5085913;28;20211;-85
2022/12/15 10:20:46;;;;;;;535.95;507.05;;;-2.90;99.90;;;;;;5086264;28;20223;-85
2022/12/15 10:23:15;;;;;;;547.70;516.55;;;-2.90;99.90;;;;;;5086310;28;20596;-85
2022/12/15 10:25:47;;;;;;;535.78;504.55;;;-2.90;99.90;;;;;;5086190;28;20231;-85
2022/12/15 10:28:38;;;;;;;483.55;458.88;;;-2.90;99.90;;;;;;5086878;28;20192;-85
2022/12/15 10:31:16;;;;;;;440.67;420.10;;;-3.00;99.90;;;;;;5085894;28;20199;-85
2022/12/15 10:33:49;;;;;;;523.50;493.38;;;-3.00;99.90;;;;;;5086465;28;20203;-85
2022/12/15 10:36:16;;;;;;;537.75;505.55;;;-2.90;99.90;;;;;;5086440;28;20607;-84
2022/12/15 10:38:46;;;;;;;572.80;536.15;;;-2.90;99.90;;;;;;5085730;28;20222;-85
2022/12/15 10:41:15;;;;;;;578.00;541.33;;;-2.90;99.90;;;;;;5085400;28;20723;-85
2022/12/15 10:43:44;;;;;;;562.08;525.08;;;-2.80;99.90;;;;;;5085458;28;20216;-85
2022/12/15 10:46:17;;;;;;;580.35;543.78;;;-2.70;99.90;;;;;;5085800;28;20282;-85
2022/12/15 10:48:47;;;;;;;595.65;556.22;;;-2.60;99.90;;;;;;5085159;28;20238;-84
2022/12/15 10:51:18;;;;;;;586.85;549.65;;;-2.50;99.90;;;;;;5085427;28;20216;-85
2022/12/15 10:53:47;;;;;;;567.25;530.03;;;-2.40;99.90;;;;;;5085290;28;20196;-85
2022/12/15 10:56:23;;;;;;;596.00;555.58;;;-2.40;99.90;;;;;;5084877;28;20192;-85
2022/12/15 10:58:52;;;;;;;620.42;579.35;;;-2.40;99.90;;;;;;5085188;28;20220;-85
2022/12/15 11:01:25;;;;;;;633.45;591.42;;;-2.10;99.90;;;;;;5085388;28;20227;-85
2022/12/15 11:03:55;;;;;;;609.65;569.58;;;-1.90;99.90;;;;;;5084937;28;20559;-85
2022/12/15 11:06:24;;;;;;;578.75;541.65;;;-2.00;99.90;;;;;;5085626;28;20204;-85
2022/12/15 11:08:53;;;;;;;620.53;578.50;;;-1.90;99.90;;;;;;5084791;28;20256;-85
2022/12/15 11:14:16;;;;;;;628.50;583.97;;;-1.80;99.90;;;;;;5084563;28;20196;-85
2022/12/15 11:16:50;;;;;;;595.67;552.53;;;-1.70;99.90;;;;;;5084901;28;20197;-85
2022/12/15 11:19:28;;;;;;;620.08;576.90;;;-1.80;99.90;;;;;;5086616;28;20203;-85
2022/12/15 11:21:59;;;;;;;631.30;592.65;;;-1.50;99.90;;;;;;5085155;28;20212;-86
2022/12/15 11:24:35;;;;;;;616.13;578.63;;;-1.30;99.90;;;;;;5085992;28;20200;-85
2022/12/15 11:27:10;;;;;;;543.17;509.58;;;-1.20;99.90;;;;;;5085584;28;20189;-85
2022/12/15 11:29:46;;;;;;;483.60;454.77;;;-1.30;99.90;;;;;;5085672;28;20203;-85
2022/12/15 11:32:14;;;;;;;491.65;463.10;;;-1.40;99.90;;;;;;5085071;28;20941;-85
2022/12/15 11:34:45;;;;;;;560.80;529.80;;;-1.50;99.90;;;;;;5086061;28;20200;-85
2022/12/15 11:37:34;;;;;;;559.08;528.65;;;-1.50;99.90;;;;;;5084139;28;20216;-84
2022/12/15 11:40:17;;;;;;;535.37;506.63;;;-1.20;99.90;;;;;;5084332;28;20234;-85
2022/12/15 11:42:59;;;;;;;458.67;433.53;;;-1.00;99.90;;;;;;5086111;28;20578;-85
2022/12/15 11:45:36;;;;;;;455.93;432.50;;;-0.90;99.90;;;;;;5084496;28;20458;-85
2022/12/15 11:48:12;;;;;;;482.93;457.97;;;-0.80;99.90;;;;;;5083510;28;20446;-85
2022/12/15 11:50:51;;;;;;;438.90;417.37;;;-0.70;99.90;;;;;;5082561;28;20481;-85
2022/12/15 11:53:47;;;;;;;339.50;320.50;;;-0.70;99.90;;;;;;5084856;28;20502;-85
2022/12/15 11:56:23;;;;;;;367.60;345.70;;;-0.90;99.90;;;;;;5084981;28;20454;-85
2022/12/15 11:59:02;;;;;;;392.80;372.33;;;-1.00;99.90;;;;;;5083172;28;20523;-85
2022/12/15 12:02:01;;;;;;;321.90;304.63;;;-0.60;99.90;;;;;;5083147;28;20549;-84
2022/12/15 12:04:35;;;;;;;217.90;203.90;;;-0.30;99.90;;;;;;5082964;28;20538;-85
2022/12/15 12:07:34;;;;;;;194.80;181.40;;;-0.60;99.90;;;;;;5083462;28;21021;-83
2022/12/15 12:10:28;;;;;;;207.13;191.63;;;-0.70;99.90;;;;;;5084261;28;20474;-85
2022/12/15 12:13:19;;;;;;;156.20;144.70;;;-0.40;99.90;;;;;;5082001;28;20527;-84
2022/12/15 12:16:22;;;;;;;137.60;126.63;;;-0.70;99.90;;;;;;5082786;28;20442;-85
2022/12/15 12:19:04;;;;;;;142.57;131.83;;;-0.60;99.90;;;;;;5082393;28;20505;-84
2022/12/15 12:21:50;;;;;;;128.70;117.03;;;-0.60;99.90;;;;;;5081906;28;20466;-86
2022/12/15 12:24:27;;;;;;;137.63;126.40;;;-0.70;99.90;;;;;;5083356;28;20454;-85
2022/12/15 12:26:59;;;;;;;150.73;137.03;;;-0.60;99.90;;;;;;5082974;28;20965;-84
2022/12/15 12:29:33;;;;;;;106.37;95.50;;;-0.30;99.90;;;;;;5083571;28;20458;-85
2022/12/15 12:32:07;;;;;;;94.37;64.10;;;0.20;99.90;;;;;;5083365;28;20481;-83
2022/12/15 12:34:51;;;;;;;99.70;57.40;;;0.20;99.90;;;;;;5083435;28;20453;-84
2022/12/15 12:37:22;;;;;;;80.53;50.30;;;0.00;99.90;;;;;;5081726;28;21089;-85
2022/12/15 12:42:45;;;;;;;85.73;48.97;;;-0.70;99.90;;;;;;5096998;28;20481;-83
2022/12/15 12:45:15;;;;;;;87.87;45.47;;;-0.80;99.90;;;;;;5104001;28;20535;-85
2022/12/15 12:47:49;;;;;;;85.57;43.50;;;-0.60;99.90;;;;;;5103511;28;20442;-85
2022/12/15 12:50:32;;;;;;;69.83;37.00;;;-0.60;99.90;;;;;;5104161;28;20442;-84
2022/12/15 12:53:10;;;;;;;77.40;42.10;;;-0.80;99.90;;;;;;5090956;28;20509;-85
2022/12/15 12:55:43;;;;;;;79.70;41.60;;;-0.70;99.90;;;;;;5103828;28;20826;-85
2022/12/15 12:58:34;;;;;;;93.13;41.80;;;-0.80;99.90;;;;;;5103310;28;20477;-85
2022/12/15 13:01:19;;;;;;;76.63;37.50;;;-0.70;99.90;;;;;;5102999;28;20468;-85
2022/12/15 13:04:05;;;;;;;89.20;42.57;;;-0.60;99.90;;;;;;5103088;28;20450;-85
2022/12/15 13:06:58;;;;;;;73.53;39.27;;;-0.20;99.90;;;;;;5102971;28;20946;-84
2022/12/15 13:09:37;;;;;;;84.90;38.03;;;-0.40;99.90;;;;;;5102710;28;20437;-85
2022/12/15 13:12:35;;;;;;;82.70;40.37;;;-0.80;99.90;;;;;;5102099;28;20465;-87
2022/12/15 13:15:11;;;;;;;76.40;36.70;;;-1.10;99.90;;;;;;5102390;28;20475;-85
2022/12/15 13:17:43;;;;;;;82.10;37.17;;;-1.50;99.90;;;;;;5103424;28;20473;-85
2022/12/15 13:20:28;;;;;;;78.18;37.38;;;-1.90;99.90;;;;;;5102501;28;20450;-85
2022/12/15 13:23:17;;;;;;;75.93;40.30;;;-2.00;99.90;;;;;;5103009;28;20216;-85
2022/12/15 13:25:45;;;;;;;82.85;43.53;;;-2.00;99.90;;;;;;5101164;28;20218;-86
2022/12/15 13:28:31;;;;;;;90.23;39.00;;;-1.30;99.90;;;;;;5102967;28;20203;-86
2022/12/15 13:31:32;;;;;;;89.80;40.23;;;-0.60;99.90;;;;;;5103661;28;20818;-85
2022/12/15 13:34:27;;;;;;;82.90;36.80;;;0.00;99.90;;;;;;5103634;28;20559;-86
2022/12/15 13:37:01;;;;;;;80.27;37.07;;;0.30;99.90;;;;;;5107230;28;20449;-86
2022/12/15 13:39:57;;;;;;;75.93;37.70;;;0.40;99.90;;;;;;5107156;28;20503;-86
2022/12/15 13:42:32;;;;;;;77.40;35.70;;;0.00;99.90;;;;;;5107032;28;20565;-85
2022/12/15 13:45:35;;;;;;;69.77;33.70;;;-0.40;99.90;;;;;;5107590;28;20457;-86
2022/12/15 13:48:12;;;;;;;73.80;35.00;;;-0.90;99.90;;;;;;5107835;28;20521;-85
2022/12/15 13:50:45;;;;;;;73.37;36.97;;;-1.20;99.90;;;;;;5107146;28;20942;-87
2022/12/15 13:53:18;;;;;;;68.90;34.53;;;-1.60;99.90;;;;;;5106660;28;20471;-86
2022/12/15 13:56:02;;;;;;;74.15;35.33;;;-1.80;99.90;;;;;;5107480;28;20449;-86
2022/12/15 13:58:33;;;;;;;74.47;35.35;;;-2.00;99.90;;;;;;5106630;28;20211;-87
2022/12/15 14:01:19;;;;;;;64.68;31.85;;;-2.20;99.90;;;;;;5106902;28;20233;-85
2022/12/15 14:03:57;;;;;;;75.60;36.78;;;-2.40;99.90;;;;;;5106870;28;20240;-86
2022/12/15 14:06:27;;;;;;;82.07;36.80;;;-2.40;99.90;;;;;;5106751;28;20200;-86
2022/12/15 14:08:53;;;;;;;75.82;42.58;;;-2.40;99.90;;;;;;5107252;28;20675;-86
2022/12/15 14:11:24;;;;;;;78.18;53.78;;;-2.60;99.90;;;;;;5105899;28;20220;-86
2022/12/15 14:13:51;;;;;;;81.90;63.20;;;-2.60;99.90;;;;;;5106115;28;20203;-86
2022/12/15 14:16:20;;;;;;;120.57;103.35;;;-2.80;99.90;;;;;;5104823;28;20195;-85
2022/12/15 14:19:10;;;;;;;121.20;110.72;;;-2.90;99.90;;;;;;5105852;28;20290;-86
2022/12/15 14:21:36;;;;;;;148.75;136.48;;;-2.90;99.90;;;;;;5105257;28;20222;-86
2022/12/15 14:24:20;;;;;;;195.85;183.05;;;-3.10;99.90;;;;;;5105716;28;20199;-86
2022/12/15 14:26:47;;;;;;;313.70;294.17;;;-3.20;99.90;;;;;;5106042;28;20213;-87
2022/12/15 14:29:14;;;;;;;349.92;327.63;;;-3.20;99.90;;;;;;5105735;28;20199;-86
2022/12/15 14:31:46;;;;;;;395.23;364.80;;;-3.30;99.90;;;;;;5104690;28;20220;-86
2022/12/15 14:34:18;;;;;;;545.85;489.63;;;-3.40;99.90;;;;;;5105732;28;20201;-86
2022/12/15 14:36:46;;;;;;;565.35;531.20;;;-3.40;99.90;;;;;;5105921;28;20191;-85
2022/12/15 14:39:20;;;;;;;504.27;474.30;;;-3.40;99.90;;;;;;5105613;28;20235;-87
2022/12/15 14:41:53;;;;;;;527.33;500.23;;;-3.60;99.90;;;;;;5105691;28;20230;-86
2022/12/15 14:44:33;;;;;;;517.13;489.75;;;-3.50;99.90;;;;;;5105746;28;20238;-87
2022/12/15 14:47:04;;;;;;;537.00;509.45;;;-3.60;99.90;;;;;;5104471;28;20244;-86
2022/12/15 14:49:40;;;;;;;568.10;538.78;;;-3.70;99.90;;;;;;5105473;28;20198;-86
2022/12/15 14:52:17;;;;;;;533.60;504.80;;;-3.80;99.90;;;;;;5105076;28;20221;-86
2022/12/15 14:54:51;;;;;;;526.30;500.75;;;-3.80;99.90;;;;;;5105770;28;20260;-86
2022/12/15 14:57:22;;;;;;;515.55;488.30;;;-4.00;99.90;;;;;;5106089;28;20262;-86
2022/12/15 14:59:50;;;;;;;513.50;486.05;;;-4.00;99.90;;;;;;5105020;28;20330;-85
2022/12/15 15:02:23;;;;;;;503.02;476.02;;;-4.00;99.90;;;;;;5104681;28;20712;-86
2022/12/15 15:05:02;;;;;;;522.78;495.77;;;-4.10;99.90;;;;;;5104328;28;20224;-86
2022/12/15 15:07:37;;;;;;;535.60;507.30;;;-4.20;99.90;;;;;;5105108;28;20221;-86